avis per tempestes more information blitzortung!


avis per Pluja more information rain snow radar


Visita la nostra xarxa de llocs de meteo:

Template documentation
and downloads

And another site



Thunderstorms From: 20-07-2018 17:00 Until: 21-07-2018 01:59 warning for: Thunderstorms Level: Yellow info button
Rain From: 20-07-2018 17:00 Until: 21-07-2018 01:59 warning for: Rain Level: Yellow info button

Pagina Historial Weather Underground text

Diari Resum Agost 27, 2017 Unitats:  Tant    Imperial   Mètric
« Previous Dia
SegĂźent Dia »
Diari Setmana Mensual Anual Personalitzada
  Maxima: Minima: Media:
Temperatura: TemperatureC °F /  -17.8 °C 21.0 °F /  -6.1 °C 26.8 °F /  -2.9 °C
Punt de rosada: DewpointC °F /  -17.8 °C 16.8 °F /  -8.4 °C 19.4 °F /  -7 °C
Humitat: Humidity % 49 % 65 %
Wind Speed: WindSpeedKMH mph /  0 km/h - 7.4 mph /  11.9 km/h
RĂ fegues de vent: WindSpeedGustKMH mph /  0 km/h - -
Vent:- - SSE
Pression baro: PressurehPa in /  0 hPa 1012.8 in /  34293.4 hPa -
Precipitacions: 0.0 in /  0 mm    
Historical Graphs
 
 
Dades de taula per Agost 27, 2017
Temps Temperatura Punt de rosada Pression baro Vent Wind Speed RĂ fegues de vent Humitat Rainfall Rate (Hourly)
TemperatureC °F /  -17.8 °C DewpointC °F /  -17.8 °C PressurehPa in /  0 hPa Calm     Humidity % HourlyPrecipMM in /  0 mm
00:03 24.2 °F /  -4.3 °C 19.5 °F /  -6.9 °C 1014.8 in /  34361.1 hPa East 3.7 mph /  6 km/h 3.7 mph /  6 km/h 75 % 0.0 in /  0 mm
00:05 22.4 °F /  -5.3 °C 19.0 °F /  -7.2 °C 1013.8 in /  34327.3 hPa Calm   3.2 mph /  5.1 km/h 81 % 0.0 in /  0 mm
00:08 24.2 °F /  -4.3 °C 19.5 °F /  -6.9 °C 1014.8 in /  34361.1 hPa East 4.2 mph /  6.8 km/h 4.2 mph /  6.8 km/h 75 % 0.0 in /  0 mm
00:15 22.4 °F /  -5.3 °C 19.0 °F /  -7.2 °C 1013.8 in /  34327.3 hPa Calm     81 % 0.0 in /  0 mm
00:25 22.4 °F /  -5.3 °C 19.0 °F /  -7.2 °C 1013.8 in /  34327.3 hPa Calm   1.6 mph /  2.6 km/h 81 % 0.0 in /  0 mm
00:35 22.4 °F /  -5.3 °C 19.2 °F /  -7.1 °C 1014.8 in /  34361.1 hPa Calm     82 % 0.0 in /  0 mm
00:45 22.4 °F /  -5.3 °C 19.2 °F /  -7.1 °C 1014.8 in /  34361.1 hPa WNW 1.6 mph /  2.6 km/h 1.6 mph /  2.6 km/h 82 % 0.0 in /  0 mm
00:55 22.4 °F /  -5.3 °C 19.2 °F /  -7.1 °C 1014.8 in /  34361.1 hPa NNW 1.6 mph /  2.6 km/h 3.2 mph /  5.1 km/h 82 % 0.0 in /  0 mm
01:05 22.3 °F /  -5.4 °C 18.9 °F /  -7.3 °C 1013.8 in /  34327.3 hPa NNE 1.6 mph /  2.6 km/h 4.8 mph /  7.7 km/h 81 % 0.0 in /  0 mm
01:15 22.0 °F /  -5.6 °C 18.6 °F /  -7.4 °C 1013.8 in /  34327.3 hPa Calm   3.2 mph /  5.1 km/h 81 % 0.0 in /  0 mm
01:25 21.8 °F /  -5.7 °C 18.6 °F /  -7.4 °C 1013.8 in /  34327.3 hPa Calm     82 % 0.0 in /  0 mm
01:35 21.8 °F /  -5.7 °C 18.6 °F /  -7.4 °C 1014.8 in /  34361.1 hPa Calm     82 % 0.0 in /  0 mm
01:45 21.7 °F /  -5.7 °C 18.5 °F /  -7.5 °C 1014.8 in /  34361.1 hPa SW 1.6 mph /  2.6 km/h 3.2 mph /  5.1 km/h 82 % 0.0 in /  0 mm
01:55 21.7 °F /  -5.7 °C 18.7 °F /  -7.4 °C 1014.8 in /  34361.1 hPa Calm   1.6 mph /  2.6 km/h 83 % 0.0 in /  0 mm
02:05 21.6 °F /  -5.8 °C 18.8 °F /  -7.3 °C 1013.8 in /  34327.3 hPa Calm     84 % 0.0 in /  0 mm
02:15 21.6 °F /  -5.8 °C 18.6 °F /  -7.4 °C 1013.8 in /  34327.3 hPa West 1.6 mph /  2.6 km/h 1.6 mph /  2.6 km/h 83 % 0.0 in /  0 mm
02:25 21.6 °F /  -5.8 °C 18.8 °F /  -7.3 °C 1013.8 in /  34327.3 hPa Calm   3.2 mph /  5.1 km/h 84 % 0.0 in /  0 mm
02:35 21.6 °F /  -5.8 °C 18.8 °F /  -7.3 °C 1014.8 in /  34361.1 hPa NW 1.6 mph /  2.6 km/h   84 % 0.0 in /  0 mm
02:45 21.2 °F /  -6 °C 18.2 °F /  -7.7 °C 1014.8 in /  34361.1 hPa NNW 1.6 mph /  2.6 km/h 3.2 mph /  5.1 km/h 83 % 0.0 in /  0 mm
02:55 21.2 °F /  -6 °C 18.4 °F /  -7.6 °C 1014.8 in /  34361.1 hPa East 1.6 mph /  2.6 km/h 3.2 mph /  5.1 km/h 84 % 0.0 in /  0 mm
03:05 21.1 °F /  -6.1 °C 18.3 °F /  -7.6 °C 1014.8 in /  34361.1 hPa Calm     84 % 0.0 in /  0 mm
03:15 21.1 °F /  -6.1 °C 18.5 °F /  -7.5 °C 1014.8 in /  34361.1 hPa ENE 1.6 mph /  2.6 km/h 3.2 mph /  5.1 km/h 85 % 0.0 in /  0 mm
03:25 21.1 °F /  -6.1 °C 18.5 °F /  -7.5 °C 1014.8 in /  34361.1 hPa ENE 1.6 mph /  2.6 km/h 3.2 mph /  5.1 km/h 85 % 0.0 in /  0 mm
03:35 21.0 °F /  -6.1 °C 18.4 °F /  -7.6 °C 1013.8 in /  34327.3 hPa Calm   4.8 mph /  7.7 km/h 85 % 0.0 in /  0 mm
03:45 21.1 °F /  -6.1 °C 18.5 °F /  -7.5 °C 1013.8 in /  34327.3 hPa Calm   3.2 mph /  5.1 km/h 85 % 0.0 in /  0 mm
03:55 21.1 °F /  -6.1 °C 18.5 °F /  -7.5 °C 1013.8 in /  34327.3 hPa Calm   3.2 mph /  5.1 km/h 85 % 0.0 in /  0 mm
04:05 21.4 °F /  -5.9 °C 18.8 °F /  -7.3 °C 1013.8 in /  34327.3 hPa Calm   3.2 mph /  5.1 km/h 85 % 0.0 in /  0 mm
04:15 21.9 °F /  -5.6 °C 19.4 °F /  -7 °C 1014.8 in /  34361.1 hPa Calm   1.6 mph /  2.6 km/h 86 % 0.0 in /  0 mm
04:25 22.0 °F /  -5.6 °C 19.3 °F /  -7.1 °C 1014.8 in /  34361.1 hPa NE 1.6 mph /  2.6 km/h 4.8 mph /  7.7 km/h 85 % 0.0 in /  0 mm
04:35 22.0 °F /  -5.6 °C 19.2 °F /  -7.1 °C 1014.8 in /  34361.1 hPa ENE 1.6 mph /  2.6 km/h 3.2 mph /  5.1 km/h 84 % 0.0 in /  0 mm
04:45 22.2 °F /  -5.4 °C 19.4 °F /  -7 °C 1014.8 in /  34361.1 hPa NE 1.6 mph /  2.6 km/h 3.2 mph /  5.1 km/h 84 % 0.0 in /  0 mm
04:55 22.2 °F /  -5.4 °C 19.2 °F /  -7.1 °C 1014.8 in /  34361.1 hPa NE 4.8 mph /  7.7 km/h 4.8 mph /  7.7 km/h 83 % 0.0 in /  0 mm
05:05 22.5 °F /  -5.3 °C 19.4 °F /  -7 °C 1014.8 in /  34361.1 hPa NE 3.2 mph /  5.1 km/h 4.8 mph /  7.7 km/h 83 % 0.0 in /  0 mm
10:09 24.5 °F /  -4.2 °C 20.0 °F /  -6.7 °C 1014.8 in /  34361.1 hPa East 9.3 mph /  15 km/h 9.3 mph /  15 km/h 76 % 0.0 in /  0 mm
10:12 24.6 °F /  -4.1 °C 20.1 °F /  -6.6 °C 1015.8 in /  34395 hPa East 3.9 mph /  6.3 km/h 4.7 mph /  7.6 km/h 76 % 0.0 in /  0 mm
10:17 24.7 °F /  -4.1 °C 20.2 °F /  -6.6 °C 1015.8 in /  34395 hPa East 7.4 mph /  11.9 km/h 7.4 mph /  11.9 km/h 76 % 0.0 in /  0 mm
10:22 24.9 °F /  -3.9 °C 20.4 °F /  -6.4 °C 1015.8 in /  34395 hPa NNE 7.4 mph /  11.9 km/h 7.4 mph /  11.9 km/h 76 % 0.0 in /  0 mm
10:27 25.0 °F /  -3.9 °C 20.3 °F /  -6.5 °C 1015.8 in /  34395 hPa NE 7.4 mph /  11.9 km/h 7.4 mph /  11.9 km/h 75 % 0.0 in /  0 mm
10:32 25.3 °F /  -3.7 °C 20.6 °F /  -6.3 °C 1015.8 in /  34395 hPa NNE 5.6 mph /  9 km/h 5.6 mph /  9 km/h 75 % 0.0 in /  0 mm
10:37 25.7 °F /  -3.5 °C 20.7 °F /  -6.3 °C 1015.8 in /  34395 hPa ESE 9.3 mph /  15 km/h 9.3 mph /  15 km/h 74 % 0.0 in /  0 mm
10:42 25.7 °F /  -3.5 °C 20.5 °F /  -6.4 °C 1015.8 in /  34395 hPa East 9.3 mph /  15 km/h 9.3 mph /  15 km/h 73 % 0.0 in /  0 mm
10:47 25.7 °F /  -3.5 °C 20.5 °F /  -6.4 °C 1015.8 in /  34395 hPa ENE 13.0 mph /  20.9 km/h 13.0 mph /  20.9 km/h 73 % 0.0 in /  0 mm
10:52 25.9 °F /  -3.4 °C 20.4 °F /  -6.4 °C 1015.8 in /  34395 hPa ESE 11.1 mph /  17.9 km/h 11.1 mph /  17.9 km/h 72 % 0.0 in /  0 mm
10:57 26.5 °F /  -3.1 °C 21.1 °F /  -6.1 °C 1015.8 in /  34395 hPa ESE 7.9 mph /  12.7 km/h 7.9 mph /  12.7 km/h 72 % 0.0 in /  0 mm
11:02 27.0 °F /  -2.8 °C 21.1 °F /  -6.1 °C 1015.8 in /  34395 hPa East 9.3 mph /  15 km/h 9.3 mph /  15 km/h 70 % 0.0 in /  0 mm
11:07 27.1 °F /  -2.7 °C 20.9 °F /  -6.2 °C 1015.8 in /  34395 hPa ESE 7.4 mph /  11.9 km/h 7.4 mph /  11.9 km/h 69 % 0.0 in /  0 mm
11:12 27.4 °F /  -2.6 °C 20.7 °F /  -6.3 °C 1015.8 in /  34395 hPa SE 7.9 mph /  12.7 km/h 7.9 mph /  12.7 km/h 67 % 0.0 in /  0 mm
11:17 27.1 °F /  -2.7 °C 20.4 °F /  -6.4 °C 1015.8 in /  34395 hPa South 13.0 mph /  20.9 km/h 13.0 mph /  20.9 km/h 67 % 0.0 in /  0 mm
11:22 27.8 °F /  -2.3 °C 21.1 °F /  -6.1 °C 1015.8 in /  34395 hPa ENE 7.4 mph /  11.9 km/h 7.4 mph /  11.9 km/h 67 % 0.0 in /  0 mm
11:27 27.4 °F /  -2.6 °C 20.7 °F /  -6.3 °C 1015.8 in /  34395 hPa ESE 5.6 mph /  9 km/h 5.6 mph /  9 km/h 67 % 0.0 in /  0 mm
11:32 27.7 °F /  -2.4 °C 20.8 °F /  -6.2 °C 1015.8 in /  34395 hPa ESE 13.0 mph /  20.9 km/h 13.0 mph /  20.9 km/h 66 % 0.0 in /  0 mm
11:37 27.5 °F /  -2.5 °C 20.6 °F /  -6.3 °C 1015.8 in /  34395 hPa East 10.0 mph /  16.1 km/h 10.0 mph /  16.1 km/h 66 % 0.0 in /  0 mm
11:42 27.7 °F /  -2.4 °C 20.5 °F /  -6.4 °C 1015.8 in /  34395 hPa NE 9.3 mph /  15 km/h 9.3 mph /  15 km/h 65 % 0.0 in /  0 mm
11:47 27.6 °F /  -2.4 °C 20.4 °F /  -6.4 °C 1015.8 in /  34395 hPa ENE 5.6 mph /  9 km/h 5.6 mph /  9 km/h 65 % 0.0 in /  0 mm
11:52 28.0 °F /  -2.2 °C 20.6 °F /  -6.3 °C 1015.8 in /  34395 hPa East 9.3 mph /  15 km/h 9.3 mph /  15 km/h 64 % 0.0 in /  0 mm
11:57 27.9 °F /  -2.3 °C 20.7 °F /  -6.3 °C 1015.8 in /  34395 hPa ESE 9.3 mph /  15 km/h 9.3 mph /  15 km/h 65 % 0.0 in /  0 mm
12:02 28.3 °F /  -2.1 °C 20.8 °F /  -6.2 °C 1015.8 in /  34395 hPa ENE 7.4 mph /  11.9 km/h 7.4 mph /  11.9 km/h 64 % 0.0 in /  0 mm
12:07 28.5 °F /  -1.9 °C 21.0 °F /  -6.1 °C 1015.8 in /  34395 hPa NE 10.0 mph /  16.1 km/h 10.0 mph /  16.1 km/h 64 % 0.0 in /  0 mm
12:12 28.6 °F /  -1.9 °C 20.9 °F /  -6.2 °C 1015.8 in /  34395 hPa ESE 9.3 mph /  15 km/h 9.3 mph /  15 km/h 63 % 0.0 in /  0 mm
12:22 29.0 °F /  -1.7 °C 21.0 °F /  -6.1 °C 1015.8 in /  34395 hPa NE 9.3 mph /  15 km/h 9.5 mph /  15.3 km/h 62 % 0.0 in /  0 mm
12:27 28.7 °F /  -1.8 °C 20.9 °F /  -6.2 °C 1014.8 in /  34361.1 hPa ENE 9.3 mph /  15 km/h 9.3 mph /  15 km/h 63 % 0.0 in /  0 mm
12:32 28.6 °F /  -1.9 °C 20.6 °F /  -6.3 °C 1014.8 in /  34361.1 hPa SE 7.4 mph /  11.9 km/h 7.4 mph /  11.9 km/h 62 % 0.0 in /  0 mm
12:37 29.5 °F /  -1.4 °C 20.9 °F /  -6.2 °C 1014.8 in /  34361.1 hPa East 11.1 mph /  17.9 km/h 11.1 mph /  17.9 km/h 60 % 0.0 in /  0 mm
12:42 28.9 °F /  -1.7 °C 20.6 °F /  -6.3 °C 1014.8 in /  34361.1 hPa East 11.4 mph /  18.3 km/h 11.4 mph /  18.3 km/h 61 % 0.0 in /  0 mm
12:47 28.9 °F /  -1.7 °C 20.6 °F /  -6.3 °C 1014.8 in /  34361.1 hPa East 13.0 mph /  20.9 km/h 13.0 mph /  20.9 km/h 61 % 0.0 in /  0 mm
12:52 29.2 °F /  -1.6 °C 20.4 °F /  -6.4 °C 1014.8 in /  34361.1 hPa East 9.3 mph /  15 km/h 9.3 mph /  15 km/h 59 % 0.0 in /  0 mm
12:57 29.2 °F /  -1.6 °C 20.6 °F /  -6.3 °C 1014.8 in /  34361.1 hPa ESE 7.4 mph /  11.9 km/h 7.4 mph /  11.9 km/h 60 % 0.0 in /  0 mm
13:02 29.0 °F /  -1.7 °C 20.4 °F /  -6.4 °C 1014.8 in /  34361.1 hPa NE 9.3 mph /  15 km/h 9.3 mph /  15 km/h 60 % 0.0 in /  0 mm
13:07 29.0 °F /  -1.7 °C 20.4 °F /  -6.4 °C 1014.8 in /  34361.1 hPa East 3.9 mph /  6.3 km/h 4.2 mph /  6.8 km/h 60 % 0.0 in /  0 mm
13:12 28.8 °F /  -1.8 °C 20.6 °F /  -6.3 °C 1014.8 in /  34361.1 hPa ENE 9.3 mph /  15 km/h 9.3 mph /  15 km/h 61 % 0.0 in /  0 mm
13:17 28.7 °F /  -1.8 °C 20.4 °F /  -6.4 °C 1014.8 in /  34361.1 hPa East 9.0 mph /  14.5 km/h 9.0 mph /  14.5 km/h 61 % 0.0 in /  0 mm
13:22 29.0 °F /  -1.7 °C 20.4 °F /  -6.4 °C 1014.8 in /  34361.1 hPa ENE 5.6 mph /  9 km/h 5.6 mph /  9 km/h 60 % 0.0 in /  0 mm
13:27 29.7 °F /  -1.3 °C 20.8 °F /  -6.2 °C 1014.8 in /  34361.1 hPa ESE 9.3 mph /  15 km/h 9.3 mph /  15 km/h 59 % 0.0 in /  0 mm
13:32 29.5 °F /  -1.4 °C 20.4 °F /  -6.4 °C 1014.8 in /  34361.1 hPa ESE 16.7 mph /  26.9 km/h 16.7 mph /  26.9 km/h 58 % 0.0 in /  0 mm
13:37 29.5 °F /  -1.4 °C 20.7 °F /  -6.3 °C 1014.8 in /  34361.1 hPa ENE 7.4 mph /  11.9 km/h 7.4 mph /  11.9 km/h 59 % 0.0 in /  0 mm
13:42 30.0 °F /  -1.1 °C 20.8 °F /  -6.2 °C 1014.8 in /  34361.1 hPa ESE 5.3 mph /  8.5 km/h 5.3 mph /  8.5 km/h 58 % 0.0 in /  0 mm
13:47 30.1 °F /  -1.1 °C 20.9 °F /  -6.2 °C 1014.8 in /  34361.1 hPa ESE 7.4 mph /  11.9 km/h 7.4 mph /  11.9 km/h 58 % 0.0 in /  0 mm
13:52 30.6 °F /  -0.8 °C 21.1 °F /  -6.1 °C 1014.8 in /  34361.1 hPa NNE 9.3 mph /  15 km/h 9.3 mph /  15 km/h 57 % 0.0 in /  0 mm
13:57 30.6 °F /  -0.8 °C 21.1 °F /  -6.1 °C 1014.8 in /  34361.1 hPa ENE 5.6 mph /  9 km/h 5.6 mph /  9 km/h 57 % 0.0 in /  0 mm
14:02 30.9 °F /  -0.6 °C 21.1 °F /  -6.1 °C 1014.8 in /  34361.1 hPa ESE 5.6 mph /  9 km/h 5.6 mph /  9 km/h 56 % 0.0 in /  0 mm
14:07 31.5 °F /  -0.3 °C 21.1 °F /  -6.1 °C 1014.8 in /  34361.1 hPa East 7.4 mph /  11.9 km/h 7.4 mph /  11.9 km/h 54 % 0.0 in /  0 mm
14:12 31.0 °F /  -0.6 °C 20.3 °F /  -6.5 °C 1013.8 in /  34327.3 hPa ESE 5.6 mph /  9 km/h 5.6 mph /  9 km/h 53 % 0.0 in /  0 mm
14:17 30.9 °F /  -0.6 °C 20.5 °F /  -6.4 °C 1013.8 in /  34327.3 hPa ESE 9.3 mph /  15 km/h 9.3 mph /  15 km/h 54 % 0.0 in /  0 mm
14:22 31.2 °F /  -0.4 °C 20.8 °F /  -6.2 °C 1013.8 in /  34327.3 hPa ENE 7.4 mph /  11.9 km/h 7.4 mph /  11.9 km/h 54 % 0.0 in /  0 mm
14:27 30.6 °F /  -0.8 °C 19.9 °F /  -6.7 °C 1013.8 in /  34327.3 hPa ESE 13.0 mph /  20.9 km/h 13.0 mph /  20.9 km/h 53 % 0.0 in /  0 mm
14:32 31.3 °F /  -0.4 °C 20.6 °F /  -6.3 °C 1013.8 in /  34327.3 hPa ENE 5.6 mph /  9 km/h 5.6 mph /  9 km/h 53 % 0.0 in /  0 mm
14:37 31.3 °F /  -0.4 °C 20.6 °F /  -6.3 °C 1013.8 in /  34327.3 hPa ESE 6.1 mph /  9.8 km/h 6.1 mph /  9.8 km/h 53 % 0.0 in /  0 mm
14:42 31.2 °F /  -0.4 °C 19.9 °F /  -6.7 °C 1013.8 in /  34327.3 hPa ENE 11.1 mph /  17.9 km/h 11.1 mph /  17.9 km/h 51 % 0.0 in /  0 mm
14:47 31.2 °F /  -0.4 °C 19.9 °F /  -6.7 °C 1013.8 in /  34327.3 hPa ESE 14.8 mph /  23.8 km/h 14.8 mph /  23.8 km/h 51 % 0.0 in /  0 mm
14:52 31.3 °F /  -0.4 °C 20.3 °F /  -6.5 °C 1013.8 in /  34327.3 hPa ESE 13.0 mph /  20.9 km/h 13.0 mph /  20.9 km/h 52 % 0.0 in /  0 mm
14:57 31.3 °F /  -0.4 °C 19.9 °F /  -6.7 °C 1013.8 in /  34327.3 hPa ENE 13.0 mph /  20.9 km/h 13.0 mph /  20.9 km/h 51 % 0.0 in /  0 mm
15:02 31.4 °F /  -0.3 °C 19.7 °F /  -6.8 °C 1013.8 in /  34327.3 hPa SE 13.0 mph /  20.9 km/h 13.0 mph /  20.9 km/h 50 % 0.0 in /  0 mm
15:07 31.4 °F /  -0.3 °C 19.7 °F /  -6.8 °C 1013.8 in /  34327.3 hPa ENE 13.0 mph /  20.9 km/h 13.0 mph /  20.9 km/h 50 % 0.0 in /  0 mm
15:12 31.6 °F /  -0.2 °C 19.9 °F /  -6.7 °C 1013.8 in /  34327.3 hPa NE 13.0 mph /  20.9 km/h 13.0 mph /  20.9 km/h 50 % 0.0 in /  0 mm
15:17 31.5 °F /  -0.3 °C 19.5 °F /  -6.9 °C 1013.8 in /  34327.3 hPa ESE 14.8 mph /  23.8 km/h 14.8 mph /  23.8 km/h 49 % 0.0 in /  0 mm
15:22 31.6 °F /  -0.2 °C 19.9 °F /  -6.7 °C 1013.8 in /  34327.3 hPa ESE 13.0 mph /  20.9 km/h 13.0 mph /  20.9 km/h 50 % 0.0 in /  0 mm
15:27 31.6 °F /  -0.2 °C 19.9 °F /  -6.7 °C 1013.8 in /  34327.3 hPa South 14.0 mph /  22.5 km/h 14.0 mph /  22.5 km/h 50 % 0.0 in /  0 mm
15:32 31.4 °F /  -0.3 °C 19.4 °F /  -7 °C 1013.8 in /  34327.3 hPa East 13.0 mph /  20.9 km/h 13.0 mph /  20.9 km/h 49 % 0.0 in /  0 mm
15:37 31.8 °F /  -0.1 °C 19.8 °F /  -6.8 °C 1013.8 in /  34327.3 hPa ESE 11.1 mph /  17.9 km/h 11.1 mph /  17.9 km/h 49 % 0.0 in /  0 mm
15:42 31.5 °F /  -0.3 °C 19.5 °F /  -6.9 °C 1013.8 in /  34327.3 hPa SE 13.0 mph /  20.9 km/h 13.0 mph /  20.9 km/h 49 % 0.0 in /  0 mm
15:47 31.5 °F /  -0.3 °C 19.5 °F /  -6.9 °C 1013.8 in /  34327.3 hPa ESE 13.0 mph /  20.9 km/h 13.0 mph /  20.9 km/h 49 % 0.0 in /  0 mm
15:52 31.7 °F /  -0.2 °C 19.7 °F /  -6.8 °C 1013.8 in /  34327.3 hPa SE 10.0 mph /  16.1 km/h 10.0 mph /  16.1 km/h 49 % 0.0 in /  0 mm
15:57 31.5 °F /  -0.3 °C 19.5 °F /  -6.9 °C 1013.8 in /  34327.3 hPa NE 13.0 mph /  20.9 km/h 13.0 mph /  20.9 km/h 49 % 0.0 in /  0 mm
16:02 31.5 °F /  -0.3 °C 19.8 °F /  -6.8 °C 1013.8 in /  34327.3 hPa ESE 12.6 mph /  20.3 km/h 12.6 mph /  20.3 km/h 50 % 0.0 in /  0 mm
16:07 30.9 °F /  -0.6 °C 19.6 °F /  -6.9 °C 1013.8 in /  34327.3 hPa East 13.0 mph /  20.9 km/h 13.0 mph /  20.9 km/h 51 % 0.0 in /  0 mm
16:12 30.8 °F /  -0.7 °C 19.8 °F /  -6.8 °C 1012.8 in /  34293.4 hPa ENE 11.1 mph /  17.9 km/h 11.1 mph /  17.9 km/h 52 % 0.0 in /  0 mm
16:17 30.5 °F /  -0.8 °C 19.6 °F /  -6.9 °C 1012.8 in /  34293.4 hPa ENE 16.9 mph /  27.2 km/h 16.9 mph /  27.2 km/h 52 % 0.0 in /  0 mm
16:22 30.1 °F /  -1.1 °C 19.4 °F /  -7 °C 1012.8 in /  34293.4 hPa ESE 14.8 mph /  23.8 km/h 14.8 mph /  23.8 km/h 53 % 0.0 in /  0 mm
16:27 29.8 °F /  -1.2 °C 19.5 °F /  -6.9 °C 1012.8 in /  34293.4 hPa SE 11.4 mph /  18.3 km/h 11.4 mph /  18.3 km/h 54 % 0.0 in /  0 mm
16:32 30.1 °F /  -1.1 °C 19.8 °F /  -6.8 °C 1012.8 in /  34293.4 hPa ESE 13.0 mph /  20.9 km/h 13.0 mph /  20.9 km/h 54 % 0.0 in /  0 mm
16:37 29.9 °F /  -1.2 °C 19.6 °F /  -6.9 °C 1012.8 in /  34293.4 hPa ESE 13.0 mph /  20.9 km/h 13.0 mph /  20.9 km/h 54 % 0.0 in /  0 mm
16:42 30.0 °F /  -1.1 °C 20.0 °F /  -6.7 °C 1013.8 in /  34327.3 hPa East 14.8 mph /  23.8 km/h 14.8 mph /  23.8 km/h 55 % 0.0 in /  0 mm
16:47 30.0 °F /  -1.1 °C 20.0 °F /  -6.7 °C 1013.8 in /  34327.3 hPa SSE 16.7 mph /  26.9 km/h 16.7 mph /  26.9 km/h 55 % 0.0 in /  0 mm
16:52 30.0 °F /  -1.1 °C 20.3 °F /  -6.5 °C 1013.8 in /  34327.3 hPa East 16.7 mph /  26.9 km/h 16.7 mph /  26.9 km/h 56 % 0.0 in /  0 mm
16:57 30.4 °F /  -0.9 °C 20.3 °F /  -6.5 °C 1013.8 in /  34327.3 hPa ESE 11.1 mph /  17.9 km/h 11.1 mph /  17.9 km/h 55 % 0.0 in /  0 mm
17:02 30.8 °F /  -0.7 °C 20.7 °F /  -6.3 °C 1013.8 in /  34327.3 hPa SW 5.6 mph /  9 km/h 5.6 mph /  9 km/h 55 % 0.0 in /  0 mm
17:07 31.0 °F /  -0.6 °C 20.9 °F /  -6.2 °C 1013.8 in /  34327.3 hPa WSW 9.3 mph /  15 km/h 9.3 mph /  15 km/h 55 % 0.0 in /  0 mm
17:12 30.7 °F /  -0.7 °C 20.9 °F /  -6.2 °C 1013.8 in /  34327.3 hPa SW 10.0 mph /  16.1 km/h 10.0 mph /  16.1 km/h 56 % 0.0 in /  0 mm
17:17 30.3 °F /  -0.9 °C 20.6 °F /  -6.3 °C 1013.8 in /  34327.3 hPa SW 10.3 mph /  16.6 km/h 10.3 mph /  16.6 km/h 56 % 0.0 in /  0 mm
17:22 30.0 °F /  -1.1 °C 20.6 °F /  -6.3 °C 1013.8 in /  34327.3 hPa South 9.5 mph /  15.3 km/h 9.5 mph /  15.3 km/h 57 % 0.0 in /  0 mm
17:27 30.0 °F /  -1.1 °C 20.6 °F /  -6.3 °C 1013.8 in /  34327.3 hPa SW 11.1 mph /  17.9 km/h 11.1 mph /  17.9 km/h 57 % 0.0 in /  0 mm
17:32 30.3 °F /  -0.9 °C 20.8 °F /  -6.2 °C 1013.8 in /  34327.3 hPa SSW 11.1 mph /  17.9 km/h 11.1 mph /  17.9 km/h 57 % 0.0 in /  0 mm
17:37 29.8 °F /  -1.2 °C 20.4 °F /  -6.4 °C 1013.8 in /  34327.3 hPa SW 22.2 mph /  35.7 km/h 22.2 mph /  35.7 km/h 57 % 0.0 in /  0 mm
17:38 29.8 °F /  -1.2 °C 20.4 °F /  -6.4 °C 1013.8 in /  34327.3 hPa SW 14.8 mph /  23.8 km/h 14.8 mph /  23.8 km/h 57 % 0.0 in /  0 mm
17:43 29.5 °F /  -1.4 °C 20.4 °F /  -6.4 °C 1013.8 in /  34327.3 hPa SW 12.6 mph /  20.3 km/h 12.6 mph /  20.3 km/h 58 % 0.0 in /  0 mm
17:48 29.4 °F /  -1.4 °C 20.3 °F /  -6.5 °C 1013.8 in /  34327.3 hPa SW 14.8 mph /  23.8 km/h 14.8 mph /  23.8 km/h 58 % 0.0 in /  0 mm
17:53 29.6 °F /  -1.3 °C 20.4 °F /  -6.4 °C 1013.8 in /  34327.3 hPa SW 17.2 mph /  27.7 km/h 17.2 mph /  27.7 km/h 58 % 0.0 in /  0 mm
17:58 29.4 °F /  -1.4 °C 20.3 °F /  -6.5 °C 1013.8 in /  34327.3 hPa SW 13.0 mph /  20.9 km/h 13.0 mph /  20.9 km/h 58 % 0.0 in /  0 mm
18:03 29.0 °F /  -1.7 °C 19.9 °F /  -6.7 °C 1013.8 in /  34327.3 hPa SW 14.8 mph /  23.8 km/h 14.8 mph /  23.8 km/h 58 % 0.0 in /  0 mm
18:08 28.9 °F /  -1.7 °C 20.3 °F /  -6.5 °C 1013.8 in /  34327.3 hPa SSW 13.0 mph /  20.9 km/h 13.0 mph /  20.9 km/h 60 % 0.0 in /  0 mm
18:13 29.1 °F /  -1.6 °C 20.3 °F /  -6.5 °C 1013.8 in /  34327.3 hPa SW 14.8 mph /  23.8 km/h 14.8 mph /  23.8 km/h 59 % 0.0 in /  0 mm
18:18 28.8 °F /  -1.8 °C 20.3 °F /  -6.5 °C 1013.8 in /  34327.3 hPa West 20.4 mph /  32.8 km/h 20.4 mph /  32.8 km/h 60 % 0.0 in /  0 mm
18:23 28.6 °F /  -1.9 °C 20.3 °F /  -6.5 °C 1013.8 in /  34327.3 hPa SW 9.3 mph /  15 km/h 9.3 mph /  15 km/h 61 % 0.0 in /  0 mm
18:28 28.5 °F /  -1.9 °C 20.2 °F /  -6.6 °C 1012.8 in /  34293.4 hPa SW 9.3 mph /  15 km/h 9.3 mph /  15 km/h 61 % 0.0 in /  0 mm
18:33 28.0 °F /  -2.2 °C 19.8 °F /  -6.8 °C 1012.8 in /  34293.4 hPa WSW 16.7 mph /  26.9 km/h 16.7 mph /  26.9 km/h 61 % 0.0 in /  0 mm
18:38 27.6 °F /  -2.4 °C 19.7 °F /  -6.8 °C 1012.8 in /  34293.4 hPa SW 18.5 mph /  29.8 km/h 18.5 mph /  29.8 km/h 62 % 0.0 in /  0 mm
18:43 27.4 °F /  -2.6 °C 19.7 °F /  -6.8 °C 1013.8 in /  34327.3 hPa West 16.7 mph /  26.9 km/h 16.7 mph /  26.9 km/h 63 % 0.0 in /  0 mm
18:48 27.0 °F /  -2.8 °C 19.3 °F /  -7.1 °C 1013.8 in /  34327.3 hPa SW 13.0 mph /  20.9 km/h 13.0 mph /  20.9 km/h 63 % 0.0 in /  0 mm
18:53 26.8 °F /  -2.9 °C 19.4 °F /  -7 °C 1013.8 in /  34327.3 hPa SW 13.0 mph /  20.9 km/h 13.0 mph /  20.9 km/h 64 % 0.0 in /  0 mm
18:58 26.7 °F /  -2.9 °C 19.6 °F /  -6.9 °C 1013.8 in /  34327.3 hPa West 9.3 mph /  15 km/h 9.3 mph /  15 km/h 65 % 0.0 in /  0 mm
19:03 26.7 °F /  -2.9 °C 19.6 °F /  -6.9 °C 1013.8 in /  34327.3 hPa WSW 9.3 mph /  15 km/h 9.3 mph /  15 km/h 65 % 0.0 in /  0 mm
19:08 26.5 °F /  -3.1 °C 19.6 °F /  -6.9 °C 1013.8 in /  34327.3 hPa SW 16.7 mph /  26.9 km/h 16.7 mph /  26.9 km/h 66 % 0.0 in /  0 mm
19:13 26.4 °F /  -3.1 °C 19.6 °F /  -6.9 °C 1013.8 in /  34327.3 hPa SSW 16.7 mph /  26.9 km/h 16.7 mph /  26.9 km/h 66 % 0.0 in /  0 mm
19:18 26.3 °F /  -3.2 °C 19.4 °F /  -7 °C 1013.8 in /  34327.3 hPa SSW 9.3 mph /  15 km/h 9.3 mph /  15 km/h 66 % 0.0 in /  0 mm
19:23 26.3 °F /  -3.2 °C 19.4 °F /  -7 °C 1013.8 in /  34327.3 hPa SSW 11.1 mph /  17.9 km/h 11.1 mph /  17.9 km/h 66 % 0.0 in /  0 mm
19:28 26.2 °F /  -3.2 °C 19.3 °F /  -7.1 °C 1012.8 in /  34293.4 hPa SW 15.8 mph /  25.4 km/h 15.8 mph /  25.4 km/h 66 % 0.0 in /  0 mm
19:33 26.1 °F /  -3.3 °C 19.5 °F /  -6.9 °C 1012.8 in /  34293.4 hPa SW 5.6 mph /  9 km/h 5.6 mph /  9 km/h 67 % 0.0 in /  0 mm
19:38 26.1 °F /  -3.3 °C 19.5 °F /  -6.9 °C 1012.8 in /  34293.4 hPa WSW 5.6 mph /  9 km/h 5.6 mph /  9 km/h 67 % 0.0 in /  0 mm
19:43 26.1 °F /  -3.3 °C 19.5 °F /  -6.9 °C 1013.8 in /  34327.3 hPa SW 5.6 mph /  9 km/h 5.6 mph /  9 km/h 67 % 0.0 in /  0 mm
19:48 26.1 °F /  -3.3 °C 19.5 °F /  -6.9 °C 1013.8 in /  34327.3 hPa WSW 5.6 mph /  9 km/h 5.6 mph /  9 km/h 67 % 0.0 in /  0 mm
19:50 26.0 °F /  -3.3 °C 19.4 °F /  -7 °C 1013.8 in /  34327.3 hPa South 7.4 mph /  11.9 km/h 7.4 mph /  11.9 km/h 67 % 0.0 in /  0 mm
19:55 26.1 °F /  -3.3 °C 19.5 °F /  -6.9 °C 1013.8 in /  34327.3 hPa SSW 5.6 mph /  9 km/h 5.6 mph /  9 km/h 67 % 0.0 in /  0 mm
20:00 26.1 °F /  -3.3 °C 19.5 °F /  -6.9 °C 1013.8 in /  34327.3 hPa WSW 3.7 mph /  6 km/h 3.7 mph /  6 km/h 67 % 0.0 in /  0 mm
20:05 26.1 °F /  -3.3 °C 19.5 °F /  -6.9 °C 1013.8 in /  34327.3 hPa ESE 1.9 mph /  3.1 km/h   67 % 0.0 in /  0 mm
20:10 26.1 °F /  -3.3 °C 19.5 °F /  -6.9 °C 1013.8 in /  34327.3 hPa West 3.7 mph /  6 km/h 3.7 mph /  6 km/h 67 % 0.0 in /  0 mm
20:15 26.1 °F /  -3.3 °C 19.5 °F /  -6.9 °C 1013.8 in /  34327.3 hPa West 1.9 mph /  3.1 km/h   67 % 0.0 in /  0 mm
20:16 26.1 °F /  -3.3 °C 19.5 °F /  -6.9 °C 1013.8 in /  34327.3 hPa West 1.9 mph /  3.1 km/h   67 % 0.0 in /  0 mm
20:21 26.1 °F /  -3.3 °C 19.5 °F /  -6.9 °C 1013.8 in /  34327.3 hPa NNE 2.6 mph /  4.2 km/h 2.6 mph /  4.2 km/h 67 % 0.0 in /  0 mm
20:26 26.1 °F /  -3.3 °C 19.5 °F /  -6.9 °C 1014.8 in /  34361.1 hPa SW 3.7 mph /  6 km/h 3.7 mph /  6 km/h 67 % 0.0 in /  0 mm
20:31 25.9 °F /  -3.4 °C 19.3 °F /  -7.1 °C 1014.8 in /  34361.1 hPa West 5.6 mph /  9 km/h 5.6 mph /  9 km/h 67 % 0.0 in /  0 mm
20:36 25.8 °F /  -3.4 °C 19.2 °F /  -7.1 °C 1014.8 in /  34361.1 hPa WNW 7.4 mph /  11.9 km/h 7.4 mph /  11.9 km/h 67 % 0.0 in /  0 mm
20:41 25.9 °F /  -3.4 °C 19.3 °F /  -7.1 °C 1012.8 in /  34293.4 hPa South 5.6 mph /  9 km/h 5.6 mph /  9 km/h 67 % 0.0 in /  0 mm
20:46 26.2 °F /  -3.2 °C 19.3 °F /  -7.1 °C 1012.8 in /  34293.4 hPa West 5.6 mph /  9 km/h 5.6 mph /  9 km/h 66 % 0.0 in /  0 mm
20:51 26.4 °F /  -3.1 °C 19.3 °F /  -7.1 °C 1012.8 in /  34293.4 hPa SSW 3.7 mph /  6 km/h   65 % 0.0 in /  0 mm
20:56 26.4 °F /  -3.1 °C 19.3 °F /  -7.1 °C 1013.8 in /  34327.3 hPa Calm     65 % 0.0 in /  0 mm
21:01 26.6 °F /  -3 °C 19.2 °F /  -7.1 °C 1013.8 in /  34327.3 hPa SE 2.6 mph /  4.2 km/h 2.6 mph /  4.2 km/h 64 % 0.0 in /  0 mm
21:06 26.5 °F /  -3.1 °C 19.1 °F /  -7.2 °C 1013.8 in /  34327.3 hPa SW 3.2 mph /  5.1 km/h   64 % 0.0 in /  0 mm
21:11 26.3 °F /  -3.2 °C 19.2 °F /  -7.1 °C 1013.8 in /  34327.3 hPa WSW 3.7 mph /  6 km/h 3.7 mph /  6 km/h 65 % 0.0 in /  0 mm
21:16 26.1 °F /  -3.3 °C 19.0 °F /  -7.2 °C 1013.8 in /  34327.3 hPa WSW 1.4 mph /  2.3 km/h   65 % 0.0 in /  0 mm
21:21 25.9 °F /  -3.4 °C 18.8 °F /  -7.3 °C 1013.8 in /  34327.3 hPa SSW 5.6 mph /  9 km/h 5.6 mph /  9 km/h 65 % 0.0 in /  0 mm
21:26 25.6 °F /  -3.6 °C 18.8 °F /  -7.3 °C 1013.8 in /  34327.3 hPa WSW 3.7 mph /  6 km/h 3.7 mph /  6 km/h 66 % 0.0 in /  0 mm
21:31 25.5 °F /  -3.6 °C 18.9 °F /  -7.3 °C 1013.8 in /  34327.3 hPa WSW 3.7 mph /  6 km/h 3.7 mph /  6 km/h 67 % 0.0 in /  0 mm
21:36 25.3 °F /  -3.7 °C 18.7 °F /  -7.4 °C 1013.8 in /  34327.3 hPa SSE 3.7 mph /  6 km/h 3.7 mph /  6 km/h 67 % 0.0 in /  0 mm
21:41 25.2 °F /  -3.8 °C 18.9 °F /  -7.3 °C 1013.8 in /  34327.3 hPa West 3.7 mph /  6 km/h 3.7 mph /  6 km/h 68 % 0.0 in /  0 mm
21:46 25.1 °F /  -3.8 °C 18.6 °F /  -7.4 °C 1013.8 in /  34327.3 hPa WSW 2.6 mph /  4.2 km/h 2.6 mph /  4.2 km/h 67 % 0.0 in /  0 mm
21:51 25.1 °F /  -3.8 °C 18.8 °F /  -7.3 °C 1013.8 in /  34327.3 hPa SSW 3.2 mph /  5.1 km/h   68 % 0.0 in /  0 mm
21:56 25.2 °F /  -3.8 °C 18.6 °F /  -7.4 °C 1013.8 in /  34327.3 hPa West 2.3 mph /  3.7 km/h   67 % 0.0 in /  0 mm
22:01 25.3 °F /  -3.7 °C 18.5 °F /  -7.5 °C 1013.8 in /  34327.3 hPa WSW 3.9 mph /  6.3 km/h 3.9 mph /  6.3 km/h 66 % 0.0 in /  0 mm
22:06 25.3 °F /  -3.7 °C 18.2 °F /  -7.7 °C 1013.8 in /  34327.3 hPa West 3.7 mph /  6 km/h 3.7 mph /  6 km/h 65 % 0.0 in /  0 mm
22:11 25.4 °F /  -3.7 °C 18.3 °F /  -7.6 °C 1013.8 in /  34327.3 hPa SW 3.7 mph /  6 km/h 3.7 mph /  6 km/h 65 % 0.0 in /  0 mm
22:16 25.3 °F /  -3.7 °C 18.5 °F /  -7.5 °C 1013.8 in /  34327.3 hPa SW 1.9 mph /  3.1 km/h   66 % 0.0 in /  0 mm
22:21 25.1 °F /  -3.8 °C 18.1 °F /  -7.7 °C 1013.8 in /  34327.3 hPa SW 3.7 mph /  6 km/h 3.7 mph /  6 km/h 65 % 0.0 in /  0 mm
22:26 25.1 °F /  -3.8 °C 17.8 °F /  -7.9 °C 1013.8 in /  34327.3 hPa SW 3.7 mph /  6 km/h 3.7 mph /  6 km/h 64 % 0.0 in /  0 mm
22:31 25.0 °F /  -3.9 °C 17.7 °F /  -7.9 °C 1013.8 in /  34327.3 hPa SW 1.9 mph /  3.1 km/h 1.9 mph /  3.1 km/h 64 % 0.0 in /  0 mm
22:36 25.0 °F /  -3.9 °C 17.7 °F /  -7.9 °C 1013.8 in /  34327.3 hPa SW 3.7 mph /  6 km/h 3.7 mph /  6 km/h 64 % 0.0 in /  0 mm
22:41 24.9 °F /  -3.9 °C 17.6 °F /  -8 °C 1013.8 in /  34327.3 hPa WSW 3.7 mph /  6 km/h 3.9 mph /  6.3 km/h 64 % 0.0 in /  0 mm
22:46 24.9 °F /  -3.9 °C 17.4 °F /  -8.1 °C 1013.8 in /  34327.3 hPa WSW 2.3 mph /  3.7 km/h 3.2 mph /  5.1 km/h 63 % 0.0 in /  0 mm
22:51 24.8 °F /  -4 °C 17.3 °F /  -8.2 °C 1013.8 in /  34327.3 hPa SW 5.6 mph /  9 km/h 5.6 mph /  9 km/h 63 % 0.0 in /  0 mm
22:56 24.8 °F /  -4 °C 17.3 °F /  -8.2 °C 1013.8 in /  34327.3 hPa West 3.7 mph /  6 km/h 3.7 mph /  6 km/h 63 % 0.0 in /  0 mm
23:01 24.7 °F /  -4.1 °C 16.9 °F /  -8.4 °C 1013.8 in /  34327.3 hPa SW 1.9 mph /  3.1 km/h 1.9 mph /  3.1 km/h 62 % 0.0 in /  0 mm
23:06 24.7 °F /  -4.1 °C 16.9 °F /  -8.4 °C 1013.8 in /  34327.3 hPa WSW 3.2 mph /  5.1 km/h 3.2 mph /  5.1 km/h 62 % 0.0 in /  0 mm
23:11 24.7 °F /  -4.1 °C 16.9 °F /  -8.4 °C 1013.8 in /  34327.3 hPa WSW 3.9 mph /  6.3 km/h 3.9 mph /  6.3 km/h 62 % 0.0 in /  0 mm
23:16 24.8 °F /  -4 °C 17.0 °F /  -8.3 °C 1013.8 in /  34327.3 hPa WSW 3.9 mph /  6.3 km/h 3.9 mph /  6.3 km/h 62 % 0.0 in /  0 mm
23:21 24.9 °F /  -3.9 °C 16.8 °F /  -8.4 °C 1013.8 in /  34327.3 hPa WSW 7.4 mph /  11.9 km/h 7.4 mph /  11.9 km/h 61 % 0.0 in /  0 mm
23:26 24.9 °F /  -3.9 °C 16.8 °F /  -8.4 °C 1013.8 in /  34327.3 hPa West 5.6 mph /  9 km/h 5.6 mph /  9 km/h 61 % 0.0 in /  0 mm
23:31 24.8 °F /  -4 °C 16.8 °F /  -8.4 °C 1013.8 in /  34327.3 hPa SW 3.9 mph /  6.3 km/h 3.9 mph /  6.3 km/h 61 % 0.0 in /  0 mm
23:36 24.7 °F /  -4.1 °C 16.9 °F /  -8.4 °C 1013.8 in /  34327.3 hPa WSW 7.4 mph /  11.9 km/h 7.4 mph /  11.9 km/h 62 % 0.0 in /  0 mm
23:41 24.6 °F /  -4.1 °C 17.1 °F /  -8.3 °C 1013.8 in /  34327.3 hPa WSW 7.4 mph /  11.9 km/h 7.4 mph /  11.9 km/h 63 % 0.0 in /  0 mm
23:46 24.5 °F /  -4.2 °C 17.2 °F /  -8.2 °C 1013.8 in /  34327.3 hPa SSW 7.4 mph /  11.9 km/h 7.4 mph /  11.9 km/h 64 % 0.0 in /  0 mm
23:51 24.4 °F /  -4.2 °C 17.4 °F /  -8.1 °C 1013.8 in /  34327.3 hPa SW 5.0 mph /  8 km/h 5.0 mph /  8 km/h 65 % 0.0 in /  0 mm
23:56 24.2 °F /  -4.3 °C 17.2 °F /  -8.2 °C 1013.8 in /  34327.3 hPa South 5.6 mph /  9 km/h 5.6 mph /  9 km/h 65 % 0.0 in /  0 mm
Meteo Sesrovires
Elogis d' Weather Underground - 2 mb

Guio original per  Jim McMurry - jmcmurry@mwt.net Adaptat per a la plantilla per  Wim van der Kuil - Leuven-Template.eu

Trobareu la nostra informacio del temps tambe a:

Weather Underground

AWEKAS